Terminal Aerodrome Forecast
Issued by NWS

Home | Current Version | Previous Version | Graphics & Text | Print | Product List | Glossary On
Versions: 1 2 3 4 5 6 7 8 9 10 11 12 13 14 15 16 17 18 19 20 21 22
000
FTUS43 KTOP 240900 AAB
TAFMHK
TAF AMD
KMHK 240927Z 2409/2506 33012KT P6SM -SHRA VCTS SCT015 BKN035CB
      TEMPO 2409/2412 2SM TSRA BR OVC025CB
     FM241500 33012G19KT P6SM VCSH FEW025 OVC100
     FM241700 34015G22KT P6SM BKN100
     FM250000 27005KT P6SM SKC=

USA.gov is the U.S. government's official web portal to all federal, state and local government web resources and services.